Skip Navigation LinksHome page > Weather > Current weather Skip Navigation Links

Current Weather

Stansted Apt, London

For information only: do not use for flight planning or navigation.
Latest weather
Observation time Wednesday, October 27, 2021 7:20 AM BST
Local time Wednesday, October 27, 2021 7:42 AM BST
Flight conditions Instrument Meteorological Conditions
Winds
Wind direction South-Southwest (210°)
Wind speed 15 mph
Visibility 6.2 mi.
Present weather light rain
Sky condition
Ceiling 900 ft. broken clouds
Cloud layer broken clouds 900 ft.
Cloud layer broken clouds 1,900 ft.
Cloud layer overcast 2,400 ft.
Temperature 57°F
Dewpoint 55°F
Altimeter 30.06 in.Hg
Derived measurements
Relative humidity 94%
Density altitude -71 ft.
Remarks
Fully automated report.
METAR EGSS 270620Z AUTO 21013KT 9999 -RA BKN009 BKN019 OVC024 14/13 Q1018

Settings

Location code

InnerDrive.Weather 4.0.6770.0 Release CLR 4.0.30319.42000
Copyright ©2018 Inner Drive Technology. All rights reserved. Portions Copyright ©1986-2018 David Braverman.

Find weather

Site navigation


Skip Navigation Links

Place info

Page info

PayPal - The safer, easier way to pay online!

Return home.

Copyright ©2021 Inner Drive Technology. Purveyors of fine, hand-crafted computer software. Page printed 2021-10-27T06:42:26 UTC.